createdAt,value
2019-03-04T00:00:02.481Z,100640.64
2019-03-04T00:02:35.055Z,100629.50
2019-03-04T00:05:07.520Z,100627.90
2019-03-04T00:07:39.495Z,100614.18
2019-03-04T00:10:11.042Z,100615.75
2019-03-04T00:12:44.337Z,100621.83
2019-03-04T00:15:15.072Z,100604.42
2019-03-04T00:17:46.193Z,100616.17
2019-03-04T00:20:16.939Z,100599.50
2019-03-04T00:22:47.671Z,100607.16
2019-03-04T00:25:20.038Z,100600.36
2019-03-04T00:27:50.779Z,100602.03
2019-03-04T00:30:21.306Z,100617.44
2019-03-04T00:32:52.102Z,100609.55
2019-03-04T00:35:23.803Z,100600.67
2019-03-04T00:37:53.956Z,100608.02
2019-03-04T00:40:24.748Z,100609.73
2019-03-04T00:42:57.525Z,100612.32
2019-03-04T00:45:28.670Z,100605.93
2019-03-04T00:47:59.712Z,100611.73
2019-03-04T00:50:30.439Z,100615.66
2019-03-04T00:53:02.095Z,100594.42
2019-03-04T00:55:33.548Z,100593.91
2019-03-04T00:58:04.793Z,100600.44
2019-03-04T01:00:35.729Z,100591.69
2019-03-04T01:03:07.385Z,100585.03
2019-03-04T01:05:38.627Z,100562.09
2019-03-04T01:08:09.669Z,100574.60
2019-03-04T01:10:42.139Z,100570.66
2019-03-04T01:13:15.538Z,100558.35
2019-03-04T01:15:46.061Z,100567.38
2019-03-04T01:18:17.332Z,100550.98
2019-03-04T01:20:51.521Z,100571.51
2019-03-04T01:23:24.694Z,100533.45
2019-03-04T01:25:56.469Z,100558.09
2019-03-04T01:28:27.101Z,100552.80
2019-03-04T01:30:57.934Z,100530.20
2019-03-04T01:33:28.763Z,100553.94
2019-03-04T01:36:00.418Z,100536.27
2019-03-04T01:38:31.053Z,100527.89
2019-03-04T01:41:02.909Z,100538.77
2019-03-04T01:43:33.745Z,100529.52
2019-03-04T01:46:05.297Z,100521.23
2019-03-04T01:48:36.126Z,100512.59
2019-03-04T01:51:10.325Z,100520.11
2019-03-04T01:53:41.998Z,100517.88
2019-03-04T01:56:15.191Z,100522.91
2019-03-04T01:58:45.818Z,100508.83
2019-03-04T02:01:20.952Z,100523.64
2019-03-04T02:03:51.276Z,100512.09
2019-03-04T02:06:22.008Z,100509.14
2019-03-04T02:08:52.639Z,100496.51
2019-03-04T02:11:23.473Z,100483.01
2019-03-04T02:13:54.825Z,100489.15
2019-03-04T02:16:27.609Z,100489.73
2019-03-04T02:18:58.536Z,100491.73
2019-03-04T02:21:28.961Z,100492.18
2019-03-04T02:24:23.351Z,100492.91
2019-03-04T02:26:56.744Z,100481.42
2019-03-04T02:29:28.868Z,100475.07
2019-03-04T02:31:59.848Z,100487.89
2019-03-04T02:34:31.606Z,100496.66
2019-03-04T02:37:03.762Z,100483.28
2019-03-04T02:39:34.653Z,100469.27
2019-03-04T02:42:05.341Z,100480.59
2019-03-04T02:44:36.232Z,100470.11
2019-03-04T02:47:07.524Z,100475.27
2019-03-04T02:49:42.249Z,100469.91
2019-03-04T02:52:12.674Z,100459.47
2019-03-04T02:54:47.180Z,100467.23
2019-03-04T02:57:20.586Z,100470.95
2019-03-04T02:59:51.727Z,100460.65
2019-03-04T03:02:22.259Z,100472.47
2019-03-04T03:04:52.989Z,100453.67
2019-03-04T03:07:26.955Z,100456.75
2019-03-04T03:09:58.448Z,100463.31
2019-03-04T03:12:29.079Z,100453.75
2019-03-04T03:14:59.810Z,100455.29
2019-03-04T03:17:31.873Z,100457.02
2019-03-04T03:20:02.700Z,100452.17
2019-03-04T03:22:33.787Z,100440.33
2019-03-04T03:25:08.489Z,100438.78
2019-03-04T03:27:38.899Z,100436.95
2019-03-04T03:30:22.950Z,100426.43
2019-03-04T03:32:54.914Z,100445.41
2019-03-04T03:35:28.410Z,100435.52
2019-03-04T03:37:59.033Z,100440.83
2019-03-04T03:40:33.351Z,100431.44
2019-03-04T03:43:04.510Z,100432.52
2019-03-04T03:45:35.942Z,100435.38
2019-03-04T03:48:07.589Z,100421.92
2019-03-04T03:50:39.926Z,100412.70
2019-03-04T03:53:12.298Z,100415.42
2019-03-04T03:55:42.761Z,100412.96
2019-03-04T03:58:15.344Z,100416.94
2019-03-04T04:00:46.581Z,100397.64
2019-03-04T04:03:18.644Z,100422.70
2019-03-04T04:05:49.996Z,100403.16
2019-03-04T04:08:22.278Z,100412.61
2019-03-04T04:10:53.949Z,100387.69
2019-03-04T04:13:27.058Z,100388.33
2019-03-04T04:15:58.671Z,100390.05
2019-03-04T04:18:29.014Z,100379.81
2019-03-04T04:21:00.531Z,100376.09
2019-03-04T04:23:32.285Z,100366.70
2019-03-04T04:26:04.353Z,100364.84
2019-03-04T04:28:35.284Z,100367.42
2019-03-04T04:31:08.579Z,100385.75
2019-03-04T04:33:40.541Z,100364.84
2019-03-04T04:36:11.275Z,100375.08
2019-03-04T04:38:43.537Z,100361.90
2019-03-04T04:41:14.890Z,100357.90
2019-03-04T04:43:46.538Z,100378.52
2019-03-04T04:46:18.855Z,100387.11
2019-03-04T04:48:52.509Z,100383.81
2019-03-04T04:51:23.449Z,100372.14
2019-03-04T04:53:55.223Z,100372.02
2019-03-04T04:56:25.939Z,100354.40
2019-03-04T04:58:57.590Z,100367.27
2019-03-04T05:01:28.221Z,100362.08
2019-03-04T05:03:59.264Z,100377.11
2019-03-04T05:06:30.504Z,100356.84
2019-03-04T05:09:01.137Z,100353.38
2019-03-04T05:11:32.073Z,100355.19
2019-03-04T05:14:04.342Z,100345.72
2019-03-04T05:16:35.172Z,100347.92
2019-03-04T05:19:05.695Z,100349.09
2019-03-04T05:21:36.436Z,100367.50
2019-03-04T05:24:07.089Z,100348.72
2019-03-04T05:26:38.622Z,100350.56
2019-03-04T05:29:09.451Z,100369.67
2019-03-04T05:31:40.704Z,100352.50
2019-03-04T05:34:13.987Z,100342.07
2019-03-04T05:36:45.704Z,100375.59
2019-03-04T05:39:16.581Z,100367.76
2019-03-04T05:41:47.613Z,100352.87
2019-03-04T05:44:20.173Z,100355.02
2019-03-04T05:46:51.027Z,100373.95
2019-03-04T05:49:24.230Z,100366.55
2019-03-04T05:51:57.305Z,100346.91
2019-03-04T05:54:30.804Z,100334.81
2019-03-04T05:57:01.759Z,100331.33
2019-03-04T05:59:33.399Z,100345.81
2019-03-04T06:02:08.442Z,100347.37
2019-03-04T06:04:38.757Z,100341.66
2019-03-04T06:07:11.740Z,100340.67
2019-03-04T06:09:42.576Z,100357.81
2019-03-04T06:12:15.146Z,100349.91
2019-03-04T06:14:46.087Z,100348.41
2019-03-04T06:17:17.225Z,100325.61
2019-03-04T06:19:50.010Z,100326.89
2019-03-04T06:22:21.048Z,100333.33
2019-03-04T06:24:52.207Z,100326.49
2019-03-04T06:27:23.840Z,100308.89
2019-03-04T06:29:54.828Z,100323.62
2019-03-04T06:32:25.841Z,100311.93
2019-03-04T06:34:58.405Z,100309.66
2019-03-04T06:37:29.238Z,100274.48
2019-03-04T06:40:02.326Z,100301.25
2019-03-04T06:42:33.959Z,100301.65
2019-03-04T06:45:07.084Z,100294.29
2019-03-04T06:47:37.791Z,100305.31
2019-03-04T06:50:47.661Z,100287.33
2019-03-04T06:53:30.978Z,100295.76
2019-03-04T06:56:10.752Z,100272.59
2019-03-04T06:58:59.572Z,100274.91
2019-03-04T07:01:50.792Z,100264.06
2019-03-04T07:04:45.066Z,100274.53
2019-03-04T07:07:16.382Z,100256.92
2019-03-04T07:09:47.679Z,100254.88
2019-03-04T07:12:18.286Z,100251.27
2019-03-04T07:14:54.450Z,100237.24
2019-03-04T07:17:26.009Z,100245.64
2019-03-04T07:20:11.991Z,100279.91
2019-03-04T07:22:44.660Z,100262.41
2019-03-04T07:25:17.749Z,100288.08
2019-03-04T07:27:48.592Z,100278.84
2019-03-04T07:30:20.865Z,100262.22
2019-03-04T07:32:51.800Z,100278.53
2019-03-04T07:35:24.985Z,100265.48
2019-03-04T07:37:58.896Z,100268.51
2019-03-04T07:40:30.548Z,100271.05
2019-03-04T07:43:01.000Z,100265.77
2019-03-04T07:45:31.705Z,100281.16
2019-03-04T07:48:04.178Z,100277.84
2019-03-04T07:50:36.149Z,100273.53
2019-03-04T07:53:06.895Z,100278.08
2019-03-04T07:55:37.509Z,100271.45
2019-03-04T07:58:09.353Z,100276.92
2019-03-04T08:00:41.018Z,100274.67
2019-03-04T08:03:12.669Z,100253.80
2019-03-04T08:05:44.498Z,100263.31
2019-03-04T08:08:17.242Z,100254.72
2019-03-04T08:11:17.440Z,100258.41
2019-03-04T08:14:02.395Z,100262.82
2019-03-04T08:16:36.130Z,100253.66
2019-03-04T08:19:08.677Z,100275.52
2019-03-04T08:21:40.944Z,100264.50
2019-03-04T08:24:12.834Z,100278.11
2019-03-04T08:26:44.768Z,100257.03
2019-03-04T08:29:16.617Z,100262.48
2019-03-04T08:31:47.183Z,100252.83
2019-03-04T08:34:18.902Z,100243.42
2019-03-04T08:36:51.570Z,100259.88
2019-03-04T08:39:23.093Z,100245.06
2019-03-04T08:41:54.532Z,100242.73
2019-03-04T08:44:24.946Z,100299.38
2019-03-04T08:46:56.559Z,100271.86
2019-03-04T08:49:27.598Z,100245.91
2019-03-04T08:51:58.434Z,100234.23
2019-03-04T08:54:32.270Z,100224.67
2019-03-04T08:57:04.131Z,100245.04
2019-03-04T08:59:35.691Z,100213.89
2019-03-04T09:02:07.225Z,100234.68
2019-03-04T09:04:40.627Z,100240.87
2019-03-04T09:07:12.443Z,100218.70
2019-03-04T09:09:43.082Z,100211.04
2019-03-04T09:12:15.685Z,100218.59
2019-03-04T09:14:47.938Z,100226.25
2019-03-04T09:17:19.077Z,100225.08
2019-03-04T09:19:49.695Z,100242.88
2019-03-04T09:22:20.438Z,100215.38
2019-03-04T09:24:51.370Z,100223.70
2019-03-04T09:27:22.347Z,100227.11
2019-03-04T09:29:53.168Z,100213.46
2019-03-04T09:32:23.920Z,100219.42
2019-03-04T09:34:55.220Z,100243.36
2019-03-04T09:37:26.053Z,100224.87
2019-03-04T09:39:58.104Z,100221.42
2019-03-04T09:42:29.267Z,100204.68
2019-03-04T09:45:01.353Z,100212.34
2019-03-04T09:47:31.843Z,100198.03
2019-03-04T09:50:02.913Z,100200.92
2019-03-04T09:52:36.393Z,100207.16
2019-03-04T09:55:08.977Z,100208.02
2019-03-04T09:57:40.224Z,100219.77
2019-03-04T10:00:33.468Z,100207.36
2019-03-04T10:03:08.202Z,100223.17
2019-03-04T10:05:59.714Z,100196.87
2019-03-04T10:08:34.647Z,100184.66
2019-03-04T10:11:07.773Z,100208.05
2019-03-04T10:13:44.527Z,100206.31
2019-03-04T10:16:33.775Z,100183.63
2019-03-04T10:19:15.878Z,100179.05
2019-03-04T10:22:01.477Z,100186.07
2019-03-04T10:24:39.736Z,100176.91
2019-03-04T10:27:13.877Z,100179.87
2019-03-04T10:29:53.824Z,100175.53
2019-03-04T10:32:50.471Z,100185.42
2019-03-04T10:35:32.871Z,100191.58
2019-03-04T10:38:22.556Z,100175.52
2019-03-04T10:40:57.952Z,100179.91
2019-03-04T10:46:52.258Z,100155.73
2019-03-04T10:49:23.644Z,100174.30
2019-03-04T10:51:54.470Z,100181.81
2019-03-04T10:54:26.444Z,100158.57
2019-03-04T10:56:58.671Z,100172.98
2019-03-04T10:59:30.676Z,100144.09
2019-03-04T11:02:01.098Z,100187.75
2019-03-04T11:04:32.649Z,100151.64
2019-03-04T11:07:03.905Z,100173.48
2019-03-04T11:09:35.859Z,100171.61
2019-03-04T11:12:07.415Z,100171.02
2019-03-04T11:14:38.038Z,100153.20
2019-03-04T11:17:10.304Z,100148.98
2019-03-04T11:19:40.964Z,100145.06
2019-03-04T11:22:13.110Z,100135.16
2019-03-04T11:24:43.628Z,100153.97
2019-03-04T11:27:17.897Z,100160.70
2019-03-04T11:29:48.382Z,100158.10
2019-03-04T11:32:19.266Z,100168.14
2019-03-04T11:34:51.793Z,100149.85
2019-03-04T11:37:22.825Z,100167.63
2019-03-04T11:39:55.913Z,100169.11
2019-03-04T11:42:29.420Z,100168.92
2019-03-04T11:45:00.404Z,100164.62
2019-03-04T11:47:31.497Z,100158.14
2019-03-04T11:50:03.458Z,100166.33
2019-03-04T11:52:34.280Z,100148.59
2019-03-04T11:55:07.572Z,100156.56
2019-03-04T11:57:38.370Z,100149.91
2019-03-04T12:00:22.453Z,100151.45
2019-03-04T12:02:54.313Z,100148.48
2019-03-04T12:05:26.217Z,100140.52
2019-03-04T12:07:56.801Z,100147.75
2019-03-04T12:10:27.553Z,100136.91
2019-03-04T12:13:00.291Z,100137.55
2019-03-04T12:15:31.155Z,100140.95
2019-03-04T12:18:03.020Z,100145.63
2019-03-04T12:20:33.746Z,100139.98
2019-03-04T12:23:05.448Z,100136.81
2019-03-04T12:25:35.950Z,100131.05
2019-03-04T12:28:07.511Z,100129.84
2019-03-04T12:30:37.985Z,100135.79
2019-03-04T12:33:14.065Z,100122.63
2019-03-04T12:35:45.814Z,100149.02
2019-03-04T12:38:19.745Z,100125.91
2019-03-04T12:40:51.181Z,100136.73
2019-03-04T12:51:50.730Z,100117.52
2019-03-04T12:54:22.477Z,100124.79
2019-03-04T12:56:52.835Z,100120.77
2019-03-04T12:59:23.965Z,100129.84
2019-03-04T13:01:54.296Z,100098.88
2019-03-04T13:04:26.742Z,100122.84
2019-03-04T13:06:58.250Z,100125.85
2019-03-04T13:09:29.146Z,100123.69
2019-03-04T13:12:00.179Z,100143.43
2019-03-04T13:14:33.366Z,100134.06
2019-03-04T13:17:08.327Z,100132.70
2019-03-04T13:19:39.238Z,100132.70
2019-03-04T13:22:12.435Z,100132.30
2019-03-04T13:24:43.978Z,100129.29
2019-03-04T13:27:23.548Z,100129.29
2019-03-04T13:29:46.876Z,100105.78
2019-03-04T13:32:18.024Z,100126.34
2019-03-04T13:34:50.901Z,100124.77
2019-03-04T13:37:21.645Z,100135.16
2019-03-04T13:39:52.571Z,100132.68
2019-03-04T13:42:24.036Z,100133.00
2019-03-04T13:44:55.267Z,100138.39
2019-03-04T13:47:26.100Z,100134.59
2019-03-04T13:49:58.598Z,100131.30
2019-03-04T13:52:29.110Z,100127.58
2019-03-04T13:55:00.298Z,100179.26
2019-03-04T13:57:32.925Z,100124.41
2019-03-04T14:00:15.223Z,100122.43
2019-03-04T14:02:48.219Z,100117.52
2019-03-04T14:05:23.066Z,100120.08
2019-03-04T14:07:53.393Z,100099.13
2019-03-04T14:10:30.480Z,100109.30
2019-03-04T14:13:01.690Z,100109.30
2019-03-04T14:15:35.705Z,100111.85
2019-03-04T14:18:09.089Z,100118.70
2019-03-04T14:20:40.038Z,100107.05
2019-03-04T14:23:10.667Z,100110.99
2019-03-04T14:25:41.318Z,100119.13
2019-03-04T14:28:12.953Z,100128.64
2019-03-04T14:30:43.480Z,100114.97
2019-03-04T14:33:14.307Z,100109.98
2019-03-04T14:35:45.502Z,100116.15
2019-03-04T14:38:18.059Z,100109.46
2019-03-04T14:40:50.113Z,100112.42
2019-03-04T14:43:20.611Z,100108.75
2019-03-04T14:45:54.344Z,100105.42
2019-03-04T14:48:24.791Z,100110.99
2019-03-04T14:50:55.534Z,100103.37
2019-03-04T14:53:26.883Z,100106.98
2019-03-04T14:55:58.068Z,100096.62
2019-03-04T14:58:29.570Z,100100.08
2019-03-04T15:01:02.406Z,100100.78
2019-03-04T15:03:35.484Z,100097.74
2019-03-04T15:06:07.211Z,100103.66
2019-03-04T15:08:38.178Z,100085.55
2019-03-04T15:11:10.547Z,100101.59
2019-03-04T15:13:43.025Z,100094.22
2019-03-04T15:16:13.860Z,100089.77
2019-03-04T15:18:44.759Z,100100.59
2019-03-04T15:21:15.223Z,100104.80
2019-03-04T15:23:46.056Z,100087.09
2019-03-04T15:26:16.566Z,100090.05
2019-03-04T15:28:48.961Z,100091.87
2019-03-04T15:31:19.382Z,100082.83
2019-03-04T15:33:50.015Z,100086.16
2019-03-04T15:36:20.546Z,100074.37
2019-03-04T15:38:51.175Z,100106.50
2019-03-04T15:41:22.524Z,100112.53
2019-03-04T15:43:54.484Z,100085.31
2019-03-04T15:46:26.024Z,100090.70
2019-03-04T15:48:57.064Z,100091.34
2019-03-04T15:51:28.411Z,100091.63
2019-03-04T15:53:59.248Z,100093.86
2019-03-04T15:56:30.091Z,100099.56
2019-03-04T15:59:03.476Z,100099.05
2019-03-04T16:01:34.312Z,100093.53
2019-03-04T16:04:04.978Z,100104.39
2019-03-04T16:06:38.643Z,100091.55
2019-03-04T16:09:12.366Z,100102.05
2019-03-04T16:11:44.299Z,100093.53
2019-03-04T16:14:15.500Z,100100.02
2019-03-04T16:16:48.330Z,100103.73
2019-03-04T16:19:19.601Z,100103.48
2019-03-04T16:21:50.005Z,100109.13
2019-03-04T16:24:20.734Z,100113.05
2019-03-04T16:26:53.002Z,100099.36
2019-03-04T16:29:23.849Z,100098.56
2019-03-04T16:31:54.472Z,100061.92
2019-03-04T16:34:26.021Z,100103.70
2019-03-04T16:36:56.320Z,100098.19
2019-03-04T16:39:28.100Z,100111.28
2019-03-04T16:41:59.039Z,100111.48
2019-03-04T16:44:30.282Z,100118.90
2019-03-04T16:47:02.046Z,100102.69
2019-03-04T16:49:32.461Z,100124.41
2019-03-04T16:52:03.232Z,100088.59
2019-03-04T16:54:34.239Z,100102.12
2019-03-04T16:57:10.120Z,100085.06
2019-03-04T16:59:41.641Z,100113.02
2019-03-04T17:02:13.727Z,100099.44
2019-03-04T17:04:45.365Z,100103.09
2019-03-04T17:07:16.096Z,100120.14
2019-03-04T17:09:46.402Z,100101.78
2019-03-04T17:12:17.591Z,100113.85
2019-03-04T17:14:49.224Z,100111.95
2019-03-04T17:17:20.147Z,100116.80
2019-03-04T17:19:52.830Z,100110.48
2019-03-04T17:22:24.392Z,100111.02
2019-03-04T17:24:55.790Z,100092.91
2019-03-04T17:27:26.272Z,100109.38
2019-03-04T17:29:58.203Z,100098.36
2019-03-04T17:32:31.744Z,100108.11
2019-03-04T17:35:05.074Z,100128.44
2019-03-04T17:37:37.999Z,100109.23
2019-03-04T17:40:11.809Z,100105.79
2019-03-04T17:42:44.986Z,100100.12
2019-03-04T17:45:17.826Z,100106.19
2019-03-04T17:47:50.029Z,100102.42
2019-03-04T17:50:32.492Z,100105.50
2019-03-04T17:53:06.458Z,100121.03
2019-03-04T17:55:37.690Z,100137.95
2019-03-04T17:58:08.021Z,100104.29
2019-03-04T18:00:40.283Z,100098.46
2019-03-04T18:03:14.393Z,100124.28
2019-03-04T18:05:44.716Z,100116.81
2019-03-04T18:08:16.065Z,100108.62
2019-03-04T18:10:47.498Z,100136.03
2019-03-04T18:13:18.283Z,100122.66
2019-03-04T18:15:51.454Z,100104.21
2019-03-04T18:18:22.067Z,100115.61
2019-03-04T18:20:53.213Z,100120.97
2019-03-04T18:23:24.568Z,100138.87
2019-03-04T18:26:03.815Z,100128.92
2019-03-04T18:29:02.791Z,100145.48
2019-03-04T18:31:48.398Z,100131.20
2019-03-04T18:34:30.338Z,100143.98
2019-03-04T18:37:25.770Z,100142.14
2019-03-04T18:40:24.176Z,100142.53
2019-03-04T18:43:05.949Z,100118.39
2019-03-04T18:46:15.311Z,100149.53
2019-03-04T18:48:57.555Z,100127.07
2019-03-04T18:51:29.652Z,100110.45
2019-03-04T18:54:02.123Z,100143.25
2019-03-04T18:56:32.850Z,100137.37
2019-03-04T18:59:04.615Z,100126.62
2019-03-04T19:01:38.210Z,100123.20
2019-03-04T19:04:09.257Z,100099.13
2019-03-04T19:06:40.390Z,100098.88
2019-03-04T19:09:13.074Z,100113.70
2019-03-04T19:11:44.520Z,100117.88
2019-03-04T19:14:18.777Z,100126.98
2019-03-04T19:16:50.794Z,100125.66
2019-03-04T19:19:22.963Z,100117.14
2019-03-04T19:21:56.052Z,100122.82
2019-03-04T19:24:27.302Z,100120.09
2019-03-04T19:27:00.248Z,100140.17
2019-03-04T19:29:34.596Z,100152.05
2019-03-04T19:32:05.328Z,100123.25
2019-03-04T19:34:36.882Z,100125.68
2019-03-04T19:37:08.433Z,100142.87
2019-03-04T19:39:39.381Z,100124.69
2019-03-04T19:42:10.648Z,100126.58
2019-03-04T19:44:42.163Z,100145.28
2019-03-04T19:47:12.490Z,100128.80
2019-03-04T19:49:43.834Z,100123.88
2019-03-04T19:52:14.737Z,100128.85
2019-03-04T19:54:46.323Z,100110.86
2019-03-04T19:57:17.366Z,100112.61
2019-03-04T19:59:49.883Z,100117.95
2019-03-04T20:02:20.367Z,100118.66
2019-03-04T20:04:51.208Z,100125.90
2019-03-04T20:07:23.263Z,100119.56
2019-03-04T20:09:53.960Z,100117.33
2019-03-04T20:12:24.826Z,100121.30
2019-03-04T20:14:55.460Z,100123.38
2019-03-04T20:17:26.096Z,100119.12
2019-03-04T20:19:56.821Z,100123.27
2019-03-04T20:22:28.380Z,100121.23
2019-03-04T20:24:59.056Z,100152.64
2019-03-04T20:27:29.328Z,100127.58
2019-03-04T20:30:01.696Z,100150.42
2019-03-04T20:32:32.734Z,100137.25
2019-03-04T20:35:03.608Z,100146.00
2019-03-04T20:37:34.508Z,100146.37
2019-03-04T20:40:06.821Z,100143.44
2019-03-04T20:42:38.422Z,100147.22
2019-03-04T20:45:13.979Z,100133.34
2019-03-04T20:47:44.405Z,100138.17
2019-03-04T20:50:17.536Z,100125.52
2019-03-04T20:52:48.226Z,100140.58
2019-03-04T20:55:18.954Z,100169.41
2019-03-04T20:57:51.113Z,100166.15
2019-03-04T21:00:30.497Z,100156.70
2019-03-04T21:03:01.801Z,100168.55
2019-03-04T21:05:32.411Z,100137.86
2019-03-04T21:08:03.271Z,100155.87
2019-03-04T21:10:35.425Z,100160.71
2019-03-04T21:13:07.456Z,100139.95
2019-03-04T21:15:38.537Z,100166.02
2019-03-04T21:18:11.320Z,100142.70
2019-03-04T21:20:41.946Z,100149.91
2019-03-04T21:23:12.982Z,100151.65
2019-03-04T21:25:53.545Z,100158.17
2019-03-04T21:28:49.469Z,100171.88
2019-03-04T21:31:29.109Z,100154.94
2019-03-04T21:34:11.186Z,100172.91
2019-03-04T21:36:51.266Z,100153.38
2019-03-04T21:39:26.521Z,100171.72
2019-03-04T21:42:03.692Z,100136.25
2019-03-04T21:44:41.063Z,100175.00
2019-03-04T21:47:23.184Z,100181.18
2019-03-04T21:49:55.330Z,100179.66
2019-03-04T21:52:37.438Z,100149.66
2019-03-04T21:55:15.044Z,100155.50
2019-03-04T21:57:48.621Z,100156.88
2019-03-04T22:00:22.901Z,100139.58
2019-03-04T22:03:12.010Z,100149.19
2019-03-04T22:05:50.367Z,100135.66
2019-03-04T22:08:16.035Z,100163.08
2019-03-04T22:10:46.155Z,100144.93
2019-03-04T22:13:16.891Z,100137.92
2019-03-04T22:15:50.690Z,100123.51
2019-03-04T22:18:25.421Z,100148.36
2019-03-04T22:20:56.377Z,100143.06
2019-03-04T22:23:31.699Z,100162.74
2019-03-04T22:26:02.481Z,100131.23
2019-03-04T22:28:33.973Z,100147.69
2019-03-04T22:31:05.529Z,100139.47
2019-03-04T22:33:38.515Z,100138.59
2019-03-04T22:36:09.146Z,100130.55
2019-03-04T22:38:42.335Z,100128.14
2019-03-04T22:41:13.769Z,100121.28
2019-03-04T22:43:45.869Z,100118.23
2019-03-04T22:46:16.262Z,100107.96
2019-03-04T22:48:48.046Z,100116.52
2019-03-04T22:51:19.999Z,100121.82
2019-03-04T22:53:51.407Z,100139.47
2019-03-04T22:56:21.674Z,100130.58
2019-03-04T22:58:52.805Z,100129.70
2019-03-04T23:01:35.511Z,100139.81
2019-03-04T23:04:09.723Z,100145.48
2019-03-04T23:06:41.285Z,100150.13
2019-03-04T23:09:15.225Z,100131.09
2019-03-04T23:11:51.110Z,100143.95
2019-03-04T23:14:25.919Z,100117.75
2019-03-04T23:16:56.604Z,100126.13
2019-03-04T23:19:27.334Z,100116.55
2019-03-04T23:21:59.705Z,100125.12
2019-03-04T23:24:31.186Z,100121.34
2019-03-04T23:27:01.647Z,100128.36
2019-03-04T23:29:32.414Z,100125.12
2019-03-04T23:32:03.554Z,100126.48
2019-03-04T23:34:38.883Z,100130.25
2019-03-04T23:37:09.730Z,100138.31
2019-03-04T23:39:40.567Z,100125.81
2019-03-04T23:42:14.712Z,100137.28
2019-03-04T23:44:44.785Z,100119.99
2019-03-04T23:47:17.164Z,100101.34
2019-03-04T23:49:50.457Z,100106.30
2019-03-04T23:52:21.294Z,100113.66
2019-03-04T23:54:52.850Z,100143.59
2019-03-04T23:57:24.397Z,100133.33
2019-03-04T23:59:55.836Z,100122.04
